sensor_id;sensor_type;location;lat;lon;timestamp;P1;durP1;ratioP1;P2;durP2;ratioP2
76107;SDS011;64834;52.516;10.528;2023-02-01T00:02:18;9.90;;;2.03;;
76107;SDS011;64834;52.516;10.528;2023-02-01T00:04:43;16.00;;;1.70;;
76107;SDS011;64834;52.516;10.528;2023-02-01T00:07:09;8.13;;;1.38;;
76107;SDS011;64834;52.516;10.528;2023-02-01T00:09:34;13.20;;;1.85;;
76107;SDS011;64834;52.516;10.528;2023-02-01T00:12:00;7.85;;;1.20;;
76107;SDS011;64834;52.516;10.528;2023-02-01T00:14:27;6.60;;;1.40;;
76107;SDS011;64834;52.516;10.528;2023-02-01T00:16:53;7.82;;;1.70;;
76107;SDS011;64834;52.516;10.528;2023-02-01T00:19:18;5.82;;;1.80;;
76107;SDS011;64834;52.516;10.528;2023-02-01T00:21:44;7.22;;;1.15;;
76107;SDS011;64834;52.516;10.528;2023-02-01T00:24:10;12.93;;;2.28;;
76107;SDS011;64834;52.516;10.528;2023-02-01T00:26:40;14.27;;;1.48;;
76107;SDS011;64834;52.516;10.528;2023-02-01T00:29:18;9.85;;;1.75;;
76107;SDS011;64834;52.516;10.528;2023-02-01T00:31:45;7.05;;;1.50;;
76107;SDS011;64834;52.516;10.528;2023-02-01T00:34:11;11.38;;;2.10;;
76107;SDS011;64834;52.516;10.528;2023-02-01T00:36:39;7.90;;;1.50;;
76107;SDS011;64834;52.516;10.528;2023-02-01T00:39:04;9.23;;;1.15;;
76107;SDS011;64834;52.516;10.528;2023-02-01T00:41:30;6.13;;;1.38;;
76107;SDS011;64834;52.516;10.528;2023-02-01T00:43:55;14.18;;;1.30;;
76107;SDS011;64834;52.516;10.528;2023-02-01T00:46:20;6.90;;;1.08;;
76107;SDS011;64834;52.516;10.528;2023-02-01T00:48:46;5.88;;;1.35;;
76107;SDS011;64834;52.516;10.528;2023-02-01T00:51:12;11.30;;;2.35;;
76107;SDS011;64834;52.516;10.528;2023-02-01T00:53:40;12.23;;;1.65;;
76107;SDS011;64834;52.516;10.528;2023-02-01T00:56:05;11.93;;;2.30;;
76107;SDS011;64834;52.516;10.528;2023-02-01T00:58:31;12.77;;;1.88;;
76107;SDS011;64834;52.516;10.528;2023-02-01T01:03:32;6.60;;;1.33;;
76107;SDS011;64834;52.516;10.528;2023-02-01T01:05:59;13.15;;;2.30;;
76107;SDS011;64834;52.516;10.528;2023-02-01T01:08:26;5.68;;;1.20;;
76107;SDS011;64834;52.516;10.528;2023-02-01T01:10:51;4.55;;;1.23;;
76107;SDS011;64834;52.516;10.528;2023-02-01T01:13:16;8.10;;;1.50;;
76107;SDS011;64834;52.516;10.528;2023-02-01T01:15:42;10.82;;;2.30;;
76107;SDS011;64834;52.516;10.528;2023-02-01T01:18:07;10.13;;;1.80;;
76107;SDS011;64834;52.516;10.528;2023-02-01T01:20:34;21.08;;;2.22;;
76107;SDS011;64834;52.516;10.528;2023-02-01T01:23:02;13.98;;;1.60;;
76107;SDS011;64834;52.516;10.528;2023-02-01T01:25:28;10.18;;;1.08;;
76107;SDS011;64834;52.516;10.528;2023-02-01T01:27:53;8.98;;;2.10;;
76107;SDS011;64834;52.516;10.528;2023-02-01T01:30:19;10.00;;;1.42;;
76107;SDS011;64834;52.516;10.528;2023-02-01T01:32:44;11.25;;;1.63;;
76107;SDS011;64834;52.516;10.528;2023-02-01T01:35:10;6.03;;;1.45;;
76107;SDS011;64834;52.516;10.528;2023-02-01T01:37:36;9.32;;;1.33;;
76107;SDS011;64834;52.516;10.528;2023-02-01T01:40:02;10.50;;;1.85;;
76107;SDS011;64834;52.516;10.528;2023-02-01T01:42:28;4.22;;;1.13;;
76107;SDS011;64834;52.516;10.528;2023-02-01T01:44:57;12.15;;;2.50;;
76107;SDS011;64834;52.516;10.528;2023-02-01T01:47:41;16.38;;;2.17;;
76107;SDS011;64834;52.516;10.528;2023-02-01T01:50:10;5.45;;;1.38;;
76107;SDS011;64834;52.516;10.528;2023-02-01T01:52:39;15.73;;;2.28;;
76107;SDS011;64834;52.516;10.528;2023-02-01T01:55:06;7.80;;;1.73;;
76107;SDS011;64834;52.516;10.528;2023-02-01T01:57:34;7.80;;;1.27;;
76107;SDS011;64834;52.516;10.528;2023-02-01T02:00:08;4.68;;;1.42;;
76107;SDS011;64834;52.516;10.528;2023-02-01T02:02:40;11.95;;;1.60;;
76107;SDS011;64834;52.516;10.528;2023-02-01T02:05:08;13.65;;;1.45;;
76107;SDS011;64834;52.516;10.528;2023-02-01T02:07:35;12.98;;;1.55;;
76107;SDS011;64834;52.516;10.528;2023-02-01T02:10:05;13.10;;;1.73;;
76107;SDS011;64834;52.516;10.528;2023-02-01T02:12:32;15.73;;;2.53;;
76107;SDS011;64834;52.516;10.528;2023-02-01T02:14:58;11.55;;;2.47;;
76107;SDS011;64834;52.516;10.528;2023-02-01T02:17:27;12.70;;;1.33;;
76107;SDS011;64834;52.516;10.528;2023-02-01T02:35:01;9.93;;;1.55;;
76107;SDS011;64834;52.516;10.528;2023-02-01T02:37:51;9.82;;;1.75;;
76107;SDS011;64834;52.516;10.528;2023-02-01T02:40:31;9.90;;;1.77;;
76107;SDS011;64834;52.516;10.528;2023-02-01T02:43:05;13.20;;;1.70;;
76107;SDS011;64834;52.516;10.528;2023-02-01T02:46:01;8.15;;;1.73;;
76107;SDS011;64834;52.516;10.528;2023-02-01T02:48:59;6.10;;;1.48;;
76107;SDS011;64834;52.516;10.528;2023-02-01T02:51:35;7.30;;;1.48;;
76107;SDS011;64834;52.516;10.528;2023-02-01T02:54:24;11.45;;;1.58;;
76107;SDS011;64834;52.516;10.528;2023-02-01T02:57:12;11.88;;;1.33;;
76107;SDS011;64834;52.516;10.528;2023-02-01T03:00:00;18.17;;;3.40;;
76107;SDS011;64834;52.516;10.528;2023-02-01T03:02:48;9.55;;;1.42;;
76107;SDS011;64834;52.516;10.528;2023-02-01T03:05:33;10.90;;;1.58;;
76107;SDS011;64834;52.516;10.528;2023-02-01T03:08:19;9.52;;;1.70;;
76107;SDS011;64834;52.516;10.528;2023-02-01T03:21:18;8.13;;;1.35;;
76107;SDS011;64834;52.516;10.528;2023-02-01T03:23:47;11.35;;;1.67;;
76107;SDS011;64834;52.516;10.528;2023-02-01T03:26:14;7.70;;;1.52;;
76107;SDS011;64834;52.516;10.528;2023-02-01T03:28:45;5.78;;;1.65;;
76107;SDS011;64834;52.516;10.528;2023-02-01T03:31:17;9.95;;;1.92;;
76107;SDS011;64834;52.516;10.528;2023-02-01T03:33:42;16.33;;;1.83;;
76107;SDS011;64834;52.516;10.528;2023-02-01T03:36:23;5.25;;;1.45;;
76107;SDS011;64834;52.516;10.528;2023-02-01T03:38:58;7.18;;;1.42;;
76107;SDS011;64834;52.516;10.528;2023-02-01T03:41:42;9.35;;;2.00;;
76107;SDS011;64834;52.516;10.528;2023-02-01T03:47:19;11.05;;;1.45;;
76107;SDS011;64834;52.516;10.528;2023-02-01T03:49:55;8.50;;;1.13;;
76107;SDS011;64834;52.516;10.528;2023-02-01T03:52:25;9.98;;;1.33;;
76107;SDS011;64834;52.516;10.528;2023-02-01T03:54:55;5.68;;;1.13;;
76107;SDS011;64834;52.516;10.528;2023-02-01T03:57:23;14.32;;;1.98;;
76107;SDS011;64834;52.516;10.528;2023-02-01T03:59:54;6.55;;;1.05;;
76107;SDS011;64834;52.516;10.528;2023-02-01T04:02:29;11.75;;;2.80;;
76107;SDS011;64834;52.516;10.528;2023-02-01T04:04:54;12.07;;;2.92;;
76107;SDS011;64834;52.516;10.528;2023-02-01T04:07:20;4.18;;;1.10;;
76107;SDS011;64834;52.516;10.528;2023-02-01T04:09:45;14.00;;;1.75;;
76107;SDS011;64834;52.516;10.528;2023-02-01T04:12:10;6.88;;;1.45;;
76107;SDS011;64834;52.516;10.528;2023-02-01T04:14:36;9.13;;;1.65;;
76107;SDS011;64834;52.516;10.528;2023-02-01T04:17:01;8.15;;;1.48;;
76107;SDS011;64834;52.516;10.528;2023-02-01T04:19:26;10.90;;;2.03;;
76107;SDS011;64834;52.516;10.528;2023-02-01T04:21:51;12.77;;;1.73;;
76107;SDS011;64834;52.516;10.528;2023-02-01T04:24:17;11.68;;;2.03;;
76107;SDS011;64834;52.516;10.528;2023-02-01T04:26:42;11.20;;;1.88;;
76107;SDS011;64834;52.516;10.528;2023-02-01T04:29:08;15.63;;;2.03;;
76107;SDS011;64834;52.516;10.528;2023-02-01T04:31:34;7.13;;;1.50;;
76107;SDS011;64834;52.516;10.528;2023-02-01T04:34:00;13.35;;;2.55;;
76107;SDS011;64834;52.516;10.528;2023-02-01T04:36:25;4.80;;;0.85;;
76107;SDS011;64834;52.516;10.528;2023-02-01T04:38:51;10.15;;;1.75;;
76107;SDS011;64834;52.516;10.528;2023-02-01T04:41:17;9.43;;;1.83;;
76107;SDS011;64834;52.516;10.528;2023-02-01T04:43:45;10.10;;;2.30;;
76107;SDS011;64834;52.516;10.528;2023-02-01T04:46:11;6.80;;;1.10;;
76107;SDS011;64834;52.516;10.528;2023-02-01T04:48:36;9.23;;;1.48;;
76107;SDS011;64834;52.516;10.528;2023-02-01T04:51:01;12.07;;;2.15;;
76107;SDS011;64834;52.516;10.528;2023-02-01T04:53:27;12.27;;;1.73;;
76107;SDS011;64834;52.516;10.528;2023-02-01T04:55:53;9.88;;;1.65;;
76107;SDS011;64834;52.516;10.528;2023-02-01T04:58:19;8.43;;;1.42;;
76107;SDS011;64834;52.516;10.528;2023-02-01T05:00:44;10.30;;;2.00;;
76107;SDS011;64834;52.516;10.528;2023-02-01T05:03:09;10.65;;;1.45;;
76107;SDS011;64834;52.516;10.528;2023-02-01T05:05:34;8.10;;;1.70;;
76107;SDS011;64834;52.516;10.528;2023-02-01T05:08:00;9.23;;;1.60;;
76107;SDS011;64834;52.516;10.528;2023-02-01T05:10:25;4.50;;;1.23;;
76107;SDS011;64834;52.516;10.528;2023-02-01T05:12:50;11.95;;;2.95;;
76107;SDS011;64834;52.516;10.528;2023-02-01T05:15:34;13.10;;;2.97;;
76107;SDS011;64834;52.516;10.528;2023-02-01T05:17:59;7.63;;;1.80;;
76107;SDS011;64834;52.516;10.528;2023-02-01T05:22:53;11.83;;;1.97;;
76107;SDS011;64834;52.516;10.528;2023-02-01T05:25:18;8.55;;;1.60;;
76107;SDS011;64834;52.516;10.528;2023-02-01T05:27:44;8.25;;;1.77;;
76107;SDS011;64834;52.516;10.528;2023-02-01T05:30:09;14.05;;;2.83;;
76107;SDS011;64834;52.516;10.528;2023-02-01T05:32:35;12.85;;;2.67;;
76107;SDS011;64834;52.516;10.528;2023-02-01T05:35:00;14.07;;;2.65;;
76107;SDS011;64834;52.516;10.528;2023-02-01T05:37:26;7.90;;;1.92;;
76107;SDS011;64834;52.516;10.528;2023-02-01T05:39:51;7.80;;;2.33;;
76107;SDS011;64834;52.516;10.528;2023-02-01T05:42:16;7.63;;;2.50;;
76107;SDS011;64834;52.516;10.528;2023-02-01T05:44:42;5.68;;;1.52;;
76107;SDS011;64834;52.516;10.528;2023-02-01T05:47:07;7.82;;;1.73;;
76107;SDS011;64834;52.516;10.528;2023-02-01T05:49:33;10.07;;;2.13;;
76107;SDS011;64834;52.516;10.528;2023-02-01T05:51:58;11.13;;;1.52;;
76107;SDS011;64834;52.516;10.528;2023-02-01T05:54:24;10.32;;;2.20;;
76107;SDS011;64834;52.516;10.528;2023-02-01T05:56:49;8.80;;;2.28;;
76107;SDS011;64834;52.516;10.528;2023-02-01T05:59:14;12.57;;;2.15;;
76107;SDS011;64834;52.516;10.528;2023-02-01T06:01:40;8.15;;;1.98;;
76107;SDS011;64834;52.516;10.528;2023-02-01T06:04:05;5.97;;;1.27;;
76107;SDS011;64834;52.516;10.528;2023-02-01T06:06:30;9.07;;;2.00;;
76107;SDS011;64834;52.516;10.528;2023-02-01T06:08:56;6.55;;;1.65;;
76107;SDS011;64834;52.516;10.528;2023-02-01T06:11:21;4.82;;;1.98;;
76107;SDS011;64834;52.516;10.528;2023-02-01T06:13:46;11.02;;;2.00;;
76107;SDS011;64834;52.516;10.528;2023-02-01T06:16:11;4.05;;;1.88;;
76107;SDS011;64834;52.516;10.528;2023-02-01T06:18:37;6.13;;;1.73;;
76107;SDS011;64834;52.516;10.528;2023-02-01T06:21:02;4.95;;;1.75;;
76107;SDS011;64834;52.516;10.528;2023-02-01T06:23:29;9.30;;;2.22;;
76107;SDS011;64834;52.516;10.528;2023-02-01T06:26:02;18.42;;;3.00;;
76107;SDS011;64834;52.516;10.528;2023-02-01T06:28:29;18.02;;;3.28;;
76107;SDS011;64834;52.516;10.528;2023-02-01T06:30:55;6.60;;;2.10;;
76107;SDS011;64834;52.516;10.528;2023-02-01T06:33:22;14.55;;;3.70;;
76107;SDS011;64834;52.516;10.528;2023-02-01T06:35:48;12.98;;;2.67;;
76107;SDS011;64834;52.516;10.528;2023-02-01T06:38:14;6.05;;;1.92;;
76107;SDS011;64834;52.516;10.528;2023-02-01T06:40:40;11.73;;;3.00;;
76107;SDS011;64834;52.516;10.528;2023-02-01T06:43:08;10.25;;;2.80;;
76107;SDS011;64834;52.516;10.528;2023-02-01T06:45:33;11.68;;;3.67;;
76107;SDS011;64834;52.516;10.528;2023-02-01T06:47:59;8.57;;;1.98;;
76107;SDS011;64834;52.516;10.528;2023-02-01T06:50:25;8.32;;;1.83;;
76107;SDS011;64834;52.516;10.528;2023-02-01T06:52:51;8.63;;;2.25;;
76107;SDS011;64834;52.516;10.528;2023-02-01T06:55:16;17.77;;;2.50;;
76107;SDS011;64834;52.516;10.528;2023-02-01T06:57:42;8.95;;;2.60;;
76107;SDS011;64834;52.516;10.528;2023-02-01T07:00:07;8.20;;;2.47;;
76107;SDS011;64834;52.516;10.528;2023-02-01T07:02:33;7.10;;;1.85;;
76107;SDS011;64834;52.516;10.528;2023-02-01T07:04:58;6.55;;;1.80;;
76107;SDS011;64834;52.516;10.528;2023-02-01T07:07:24;11.25;;;3.47;;
76107;SDS011;64834;52.516;10.528;2023-02-01T07:09:49;6.35;;;1.58;;
76107;SDS011;64834;52.516;10.528;2023-02-01T07:12:15;8.05;;;2.40;;
76107;SDS011;64834;52.516;10.528;2023-02-01T07:14:40;3.35;;;1.40;;
76107;SDS011;64834;52.516;10.528;2023-02-01T07:17:06;5.03;;;1.40;;
76107;SDS011;64834;52.516;10.528;2023-02-01T07:19:31;9.35;;;2.13;;
76107;SDS011;64834;52.516;10.528;2023-02-01T07:21:56;6.97;;;2.00;;
76107;SDS011;64834;52.516;10.528;2023-02-01T07:24:22;11.77;;;2.15;;
76107;SDS011;64834;52.516;10.528;2023-02-01T07:26:47;10.02;;;2.85;;
76107;SDS011;64834;52.516;10.528;2023-02-01T07:29:13;7.53;;;2.85;;
76107;SDS011;64834;52.516;10.528;2023-02-01T07:31:38;5.60;;;2.30;;
76107;SDS011;64834;52.516;10.528;2023-02-01T07:34:03;11.13;;;3.05;;
76107;SDS011;64834;52.516;10.528;2023-02-01T07:36:29;9.43;;;2.10;;
76107;SDS011;64834;52.516;10.528;2023-02-01T07:38:54;7.30;;;2.60;;
76107;SDS011;64834;52.516;10.528;2023-02-01T07:41:20;9.95;;;3.05;;
76107;SDS011;64834;52.516;10.528;2023-02-01T07:43:45;5.20;;;2.30;;
76107;SDS011;64834;52.516;10.528;2023-02-01T07:46:11;4.55;;;2.05;;
76107;SDS011;64834;52.516;10.528;2023-02-01T07:48:36;8.15;;;2.05;;
76107;SDS011;64834;52.516;10.528;2023-02-01T07:51:09;8.25;;;2.88;;
76107;SDS011;64834;52.516;10.528;2023-02-01T07:53:36;9.90;;;3.92;;
76107;SDS011;64834;52.516;10.528;2023-02-01T07:56:02;8.27;;;2.80;;
76107;SDS011;64834;52.516;10.528;2023-02-01T07:58:28;11.05;;;2.80;;
76107;SDS011;64834;52.516;10.528;2023-02-01T08:00:53;4.88;;;1.88;;
76107;SDS011;64834;52.516;10.528;2023-02-01T08:03:38;6.03;;;2.08;;
76107;SDS011;64834;52.516;10.528;2023-02-01T08:06:04;5.38;;;1.75;;
76107;SDS011;64834;52.516;10.528;2023-02-01T08:08:29;7.22;;;1.92;;
76107;SDS011;64834;52.516;10.528;2023-02-01T08:11:01;5.60;;;2.20;;
76107;SDS011;64834;52.516;10.528;2023-02-01T08:13:29;6.15;;;2.63;;
76107;SDS011;64834;52.516;10.528;2023-02-01T08:15:58;10.23;;;1.90;;
76107;SDS011;64834;52.516;10.528;2023-02-01T08:18:24;7.65;;;2.47;;
76107;SDS011;64834;52.516;10.528;2023-02-01T08:20:50;9.35;;;2.80;;
76107;SDS011;64834;52.516;10.528;2023-02-01T08:23:16;11.18;;;2.58;;
76107;SDS011;64834;52.516;10.528;2023-02-01T08:25:42;3.92;;;1.73;;
76107;SDS011;64834;52.516;10.528;2023-02-01T08:28:08;9.27;;;2.08;;
76107;SDS011;64834;52.516;10.528;2023-02-01T08:30:36;4.75;;;1.23;;
76107;SDS011;64834;52.516;10.528;2023-02-01T08:33:02;6.03;;;1.45;;
76107;SDS011;64834;52.516;10.528;2023-02-01T08:35:27;5.35;;;1.50;;
76107;SDS011;64834;52.516;10.528;2023-02-01T08:37:52;6.85;;;1.55;;
76107;SDS011;64834;52.516;10.528;2023-02-01T08:40:18;7.53;;;1.50;;
76107;SDS011;64834;52.516;10.528;2023-02-01T08:42:44;5.43;;;1.15;;
76107;SDS011;64834;52.516;10.528;2023-02-01T08:45:15;4.30;;;0.95;;
76107;SDS011;64834;52.516;10.528;2023-02-01T08:47:41;4.10;;;0.88;;
76107;SDS011;64834;52.516;10.528;2023-02-01T08:50:07;3.53;;;1.58;;
76107;SDS011;64834;52.516;10.528;2023-02-01T08:52:33;6.07;;;0.73;;
76107;SDS011;64834;52.516;10.528;2023-02-01T08:54:59;5.05;;;1.25;;
76107;SDS011;64834;52.516;10.528;2023-02-01T08:57:24;8.05;;;1.17;;
76107;SDS011;64834;52.516;10.528;2023-02-01T08:59:49;1.60;;;0.63;;
76107;SDS011;64834;52.516;10.528;2023-02-01T09:02:15;7.03;;;0.70;;
76107;SDS011;64834;52.516;10.528;2023-02-01T09:04:41;2.78;;;0.88;;
76107;SDS011;64834;52.516;10.528;2023-02-01T09:07:07;3.63;;;0.93;;
76107;SDS011;64834;52.516;10.528;2023-02-01T09:09:33;6.07;;;1.50;;
76107;SDS011;64834;52.516;10.528;2023-02-01T09:11:59;4.55;;;0.75;;
76107;SDS011;64834;52.516;10.528;2023-02-01T09:14:24;2.90;;;1.27;;
76107;SDS011;64834;52.516;10.528;2023-02-01T09:16:49;3.85;;;1.30;;
76107;SDS011;64834;52.516;10.528;2023-02-01T09:19:15;5.10;;;1.13;;
76107;SDS011;64834;52.516;10.528;2023-02-01T09:21:40;6.18;;;1.52;;
76107;SDS011;64834;52.516;10.528;2023-02-01T09:24:06;3.13;;;0.90;;
76107;SDS011;64834;52.516;10.528;2023-02-01T09:26:32;3.83;;;1.15;;
76107;SDS011;64834;52.516;10.528;2023-02-01T09:28:57;9.80;;;1.92;;
76107;SDS011;64834;52.516;10.528;2023-02-01T09:31:23;5.75;;;1.75;;
76107;SDS011;64834;52.516;10.528;2023-02-01T09:33:48;6.70;;;1.50;;
76107;SDS011;64834;52.516;10.528;2023-02-01T09:36:13;10.48;;;1.83;;
76107;SDS011;64834;52.516;10.528;2023-02-01T09:38:39;5.13;;;0.90;;
76107;SDS011;64834;52.516;10.528;2023-02-01T09:41:18;7.32;;;1.27;;
76107;SDS011;64834;52.516;10.528;2023-02-01T09:43:59;10.05;;;1.15;;
76107;SDS011;64834;52.516;10.528;2023-02-01T09:46:39;10.13;;;1.77;;
76107;SDS011;64834;52.516;10.528;2023-02-01T09:49:08;3.20;;;0.75;;
76107;SDS011;64834;52.516;10.528;2023-02-01T09:51:42;4.55;;;1.02;;
76107;SDS011;64834;52.516;10.528;2023-02-01T09:54:12;5.13;;;1.02;;
76107;SDS011;64834;52.516;10.528;2023-02-01T09:56:51;7.25;;;1.20;;
76107;SDS011;64834;52.516;10.528;2023-02-01T10:01:52;6.60;;;1.58;;
76107;SDS011;64834;52.516;10.528;2023-02-01T10:04:18;4.95;;;1.55;;
76107;SDS011;64834;52.516;10.528;2023-02-01T10:12:08;5.35;;;2.00;;
76107;SDS011;64834;52.516;10.528;2023-02-01T10:14:49;5.90;;;0.98;;
76107;SDS011;64834;52.516;10.528;2023-02-01T10:17:43;7.15;;;1.50;;
76107;SDS011;64834;52.516;10.528;2023-02-01T10:23:27;9.32;;;2.40;;
76107;SDS011;64834;52.516;10.528;2023-02-01T10:26:16;14.70;;;2.28;;
76107;SDS011;64834;52.516;10.528;2023-02-01T10:28:46;10.38;;;1.98;;
76107;SDS011;64834;52.516;10.528;2023-02-01T10:31:14;7.18;;;1.48;;
76107;SDS011;64834;52.516;10.528;2023-02-01T10:33:43;8.80;;;2.25;;
76107;SDS011;64834;52.516;10.528;2023-02-01T10:36:14;9.75;;;1.92;;
76107;SDS011;64834;52.516;10.528;2023-02-01T10:38:44;6.32;;;1.30;;
76107;SDS011;64834;52.516;10.528;2023-02-01T10:41:12;7.25;;;1.27;;
76107;SDS011;64834;52.516;10.528;2023-02-01T10:43:41;11.23;;;2.08;;
76107;SDS011;64834;52.516;10.528;2023-02-01T10:46:08;12.48;;;1.95;;
76107;SDS011;64834;52.516;10.528;2023-02-01T10:48:34;10.07;;;1.73;;
76107;SDS011;64834;52.516;10.528;2023-02-01T10:51:00;6.88;;;1.40;;
76107;SDS011;64834;52.516;10.528;2023-02-01T10:56:18;6.57;;;1.38;;
76107;SDS011;64834;52.516;10.528;2023-02-01T10:58:47;4.93;;;1.33;;
76107;SDS011;64834;52.516;10.528;2023-02-01T11:04:18;4.65;;;1.52;;
76107;SDS011;64834;52.516;10.528;2023-02-01T11:07:03;10.15;;;2.55;;
76107;SDS011;64834;52.516;10.528;2023-02-01T11:09:32;11.32;;;2.00;;
76107;SDS011;64834;52.516;10.528;2023-02-01T11:12:03;6.18;;;0.77;;
76107;SDS011;64834;52.516;10.528;2023-02-01T11:14:34;10.60;;;2.45;;
76107;SDS011;64834;52.516;10.528;2023-02-01T11:19:43;4.50;;;1.30;;
76107;SDS011;64834;52.516;10.528;2023-02-01T11:22:09;9.88;;;1.48;;
76107;SDS011;64834;52.516;10.528;2023-02-01T11:24:37;7.88;;;2.00;;
76107;SDS011;64834;52.516;10.528;2023-02-01T11:27:06;3.13;;;1.20;;
76107;SDS011;64834;52.516;10.528;2023-02-01T11:29:39;6.18;;;1.52;;
76107;SDS011;64834;52.516;10.528;2023-02-01T11:32:08;11.10;;;1.42;;
76107;SDS011;64834;52.516;10.528;2023-02-01T11:34:41;7.85;;;1.67;;
76107;SDS011;64834;52.516;10.528;2023-02-01T11:37:17;8.88;;;1.58;;
76107;SDS011;64834;52.516;10.528;2023-02-01T11:40:03;8.85;;;1.92;;
76107;SDS011;64834;52.516;10.528;2023-02-01T11:42:55;11.05;;;1.77;;
76107;SDS011;64834;52.516;10.528;2023-02-01T11:47:55;12.50;;;2.00;;
76107;SDS011;64834;52.516;10.528;2023-02-01T11:53:36;11.65;;;1.95;;
76107;SDS011;64834;52.516;10.528;2023-02-01T12:07:32;7.18;;;1.25;;
76107;SDS011;64834;52.516;10.528;2023-02-01T12:10:24;3.88;;;0.88;;
76107;SDS011;64834;52.516;10.528;2023-02-01T12:13:01;10.13;;;1.73;;
76107;SDS011;64834;52.516;10.528;2023-02-01T12:23:59;6.68;;;1.48;;
76107;SDS011;64834;52.516;10.528;2023-02-01T12:27:01;4.30;;;0.95;;
76107;SDS011;64834;52.516;10.528;2023-02-01T12:29:58;4.05;;;1.25;;
76107;SDS011;64834;52.516;10.528;2023-02-01T12:32:37;6.00;;;1.42;;
76107;SDS011;64834;52.516;10.528;2023-02-01T12:38:03;5.10;;;1.10;;
76107;SDS011;64834;52.516;10.528;2023-02-01T12:46:34;8.57;;;1.77;;
76107;SDS011;64834;52.516;10.528;2023-02-01T12:49:18;3.38;;;0.60;;
76107;SDS011;64834;52.516;10.528;2023-02-01T12:51:50;6.63;;;1.35;;
76107;SDS011;64834;52.516;10.528;2023-02-01T12:54:20;5.25;;;1.25;;
76107;SDS011;64834;52.516;10.528;2023-02-01T12:57:00;5.53;;;1.20;;
76107;SDS011;64834;52.516;10.528;2023-02-01T12:59:34;11.55;;;1.98;;
76107;SDS011;64834;52.516;10.528;2023-02-01T13:02:11;8.48;;;1.52;;
76107;SDS011;64834;52.516;10.528;2023-02-01T13:07:16;7.72;;;1.88;;
76107;SDS011;64834;52.516;10.528;2023-02-01T13:09:53;11.25;;;2.63;;
76107;SDS011;64834;52.516;10.528;2023-02-01T13:15:12;7.75;;;1.75;;
76107;SDS011;64834;52.516;10.528;2023-02-01T13:17:42;5.70;;;1.98;;
76107;SDS011;64834;52.516;10.528;2023-02-01T13:20:25;5.75;;;1.45;;
76107;SDS011;64834;52.516;10.528;2023-02-01T13:23:05;8.32;;;1.55;;
76107;SDS011;64834;52.516;10.528;2023-02-01T13:28:12;8.27;;;1.17;;
76107;SDS011;64834;52.516;10.528;2023-02-01T13:33:36;3.95;;;1.42;;
76107;SDS011;64834;52.516;10.528;2023-02-01T13:36:39;9.27;;;1.75;;
76107;SDS011;64834;52.516;10.528;2023-02-01T13:42:15;3.10;;;1.05;;
76107;SDS011;64834;52.516;10.528;2023-02-01T13:47:25;5.57;;;1.33;;
76107;SDS011;64834;52.516;10.528;2023-02-01T13:49:54;1.80;;;0.73;;
76107;SDS011;64834;52.516;10.528;2023-02-01T13:52:34;1.65;;;0.45;;
76107;SDS011;64834;52.516;10.528;2023-02-01T13:57:47;1.88;;;0.30;;
76107;SDS011;64834;52.516;10.528;2023-02-01T14:00:24;3.70;;;0.65;;
76107;SDS011;64834;52.516;10.528;2023-02-01T14:03:02;1.45;;;0.52;;
76107;SDS011;64834;52.516;10.528;2023-02-01T14:23:40;1.10;;;0.40;;
76107;SDS011;64834;52.516;10.528;2023-02-01T14:26:08;2.00;;;0.85;;
76107;SDS011;64834;52.516;10.528;2023-02-01T14:28:36;1.55;;;0.52;;
76107;SDS011;64834;52.516;10.528;2023-02-01T14:31:17;2.92;;;0.73;;
76107;SDS011;64834;52.516;10.528;2023-02-01T14:33:55;4.15;;;1.02;;
76107;SDS011;64834;52.516;10.528;2023-02-01T14:36:23;2.30;;;0.38;;
76107;SDS011;64834;52.516;10.528;2023-02-01T14:38:49;3.28;;;0.45;;
76107;SDS011;64834;52.516;10.528;2023-02-01T14:41:34;1.02;;;0.50;;
76107;SDS011;64834;52.516;10.528;2023-02-01T14:49:31;1.73;;;0.50;;
76107;SDS011;64834;52.516;10.528;2023-02-01T14:51:58;3.35;;;0.70;;
76107;SDS011;64834;52.516;10.528;2023-02-01T14:54:27;0.98;;;0.10;;
76107;SDS011;64834;52.516;10.528;2023-02-01T14:56:53;2.03;;;0.30;;
76107;SDS011;64834;52.516;10.528;2023-02-01T14:59:20;1.17;;;0.68;;
76107;SDS011;64834;52.516;10.528;2023-02-01T15:01:53;0.60;;;0.10;;
76107;SDS011;64834;52.516;10.528;2023-02-01T15:04:24;1.25;;;0.20;;
76107;SDS011;64834;52.516;10.528;2023-02-01T15:06:57;1.92;;;0.30;;
76107;SDS011;64834;52.516;10.528;2023-02-01T15:12:05;1.65;;;0.47;;
76107;SDS011;64834;52.516;10.528;2023-02-01T15:20:15;1.73;;;0.45;;
76107;SDS011;64834;52.516;10.528;2023-02-01T15:22:42;2.75;;;0.45;;
76107;SDS011;64834;52.516;10.528;2023-02-01T15:25:36;1.42;;;0.10;;
76107;SDS011;64834;52.516;10.528;2023-02-01T15:28:03;2.58;;;0.40;;
76107;SDS011;64834;52.516;10.528;2023-02-01T15:30:31;0.63;;;0.50;;
76107;SDS011;64834;52.516;10.528;2023-02-01T15:40:55;4.00;;;0.75;;
76107;SDS011;64834;52.516;10.528;2023-02-01T15:43:37;4.20;;;0.90;;
76107;SDS011;64834;52.516;10.528;2023-02-01T15:46:07;2.83;;;0.50;;
76107;SDS011;64834;52.516;10.528;2023-02-01T15:48:36;2.83;;;0.65;;
76107;SDS011;64834;52.516;10.528;2023-02-01T15:51:05;3.38;;;0.70;;
76107;SDS011;64834;52.516;10.528;2023-02-01T15:53:31;2.33;;;0.68;;
76107;SDS011;64834;52.516;10.528;2023-02-01T15:55:59;5.22;;;1.10;;
76107;SDS011;64834;52.516;10.528;2023-02-01T15:58:27;1.52;;;0.50;;
76107;SDS011;64834;52.516;10.528;2023-02-01T16:00:54;2.08;;;0.45;;
76107;SDS011;64834;52.516;10.528;2023-02-01T16:03:40;5.00;;;0.80;;
76107;SDS011;64834;52.516;10.528;2023-02-01T16:06:26;2.35;;;0.43;;
76107;SDS011;64834;52.516;10.528;2023-02-01T16:12:19;3.58;;;0.45;;
76107;SDS011;64834;52.516;10.528;2023-02-01T16:14:28;1.85;;;0.63;;
76107;SDS011;64834;52.516;10.528;2023-02-01T16:16:54;1.20;;;0.40;;
76107;SDS011;64834;52.516;10.528;2023-02-01T16:19:22;1.17;;;0.45;;
76107;SDS011;64834;52.516;10.528;2023-02-01T16:21:52;1.85;;;0.52;;
76107;SDS011;64834;52.516;10.528;2023-02-01T16:24:18;2.67;;;0.50;;
76107;SDS011;64834;52.516;10.528;2023-02-01T16:26:44;2.15;;;0.20;;
76107;SDS011;64834;52.516;10.528;2023-02-01T16:29:09;3.10;;;0.45;;
76107;SDS011;64834;52.516;10.528;2023-02-01T16:31:36;2.25;;;0.40;;
76107;SDS011;64834;52.516;10.528;2023-02-01T16:34:05;3.53;;;0.50;;
76107;SDS011;64834;52.516;10.528;2023-02-01T16:36:31;2.88;;;0.70;;
76107;SDS011;64834;52.516;10.528;2023-02-01T16:38:57;2.72;;;0.50;;
76107;SDS011;64834;52.516;10.528;2023-02-01T16:41:23;1.50;;;0.40;;
76107;SDS011;64834;52.516;10.528;2023-02-01T16:43:50;6.90;;;1.05;;
76107;SDS011;64834;52.516;10.528;2023-02-01T16:46:17;6.18;;;1.27;;
76107;SDS011;64834;52.516;10.528;2023-02-01T16:48:48;6.75;;;1.35;;
76107;SDS011;64834;52.516;10.528;2023-02-01T16:51:17;8.30;;;1.27;;
76107;SDS011;64834;52.516;10.528;2023-02-01T16:53:43;6.93;;;1.33;;
76107;SDS011;64834;52.516;10.528;2023-02-01T16:56:16;4.00;;;0.57;;
76107;SDS011;64834;52.516;10.528;2023-02-01T16:58:44;6.88;;;0.60;;
76107;SDS011;64834;52.516;10.528;2023-02-01T17:01:11;4.97;;;0.90;;
76107;SDS011;64834;52.516;10.528;2023-02-01T17:03:38;6.00;;;0.63;;
76107;SDS011;64834;52.516;10.528;2023-02-01T17:06:04;5.18;;;1.05;;
76107;SDS011;64834;52.516;10.528;2023-02-01T17:08:32;4.38;;;1.05;;
76107;SDS011;64834;52.516;10.528;2023-02-01T17:11:00;3.33;;;0.85;;
76107;SDS011;64834;52.516;10.528;2023-02-01T17:13:26;5.15;;;0.73;;
76107;SDS011;64834;52.516;10.528;2023-02-01T17:15:53;1.95;;;0.70;;